createdAt,value
2022-11-27T00:02:21.824Z,1.70
2022-11-27T00:04:48.643Z,1.70
2022-11-27T00:07:15.568Z,1.60
2022-11-27T00:09:42.714Z,1.70
2022-11-27T00:12:09.582Z,1.60
2022-11-27T00:14:36.414Z,1.60
2022-11-27T00:17:03.228Z,1.60
2022-11-27T00:19:30.014Z,1.50
2022-11-27T00:21:56.845Z,1.50
2022-11-27T00:24:23.651Z,1.50
2022-11-27T00:26:50.432Z,1.50
2022-11-27T00:29:17.223Z,1.60
2022-11-27T00:31:44.120Z,1.60
2022-11-27T00:34:11.498Z,1.50
2022-11-27T00:36:38.593Z,1.60
2022-11-27T00:39:06.153Z,1.60
2022-11-27T00:41:33.681Z,1.50
2022-11-27T00:44:00.472Z,1.50
2022-11-27T00:46:29.311Z,1.50
2022-11-27T00:49:00.079Z,1.50
2022-11-27T00:51:27.091Z,1.50
2022-11-27T00:53:54.002Z,1.60
2022-11-27T00:56:22.277Z,1.60
2022-11-27T00:58:49.599Z,1.60
2022-11-27T01:01:21.673Z,1.60
2022-11-27T01:03:48.822Z,1.60
2022-11-27T01:06:16.488Z,1.60
2022-11-27T01:08:43.618Z,1.70
2022-11-27T01:11:15.438Z,1.70
2022-11-27T01:13:42.484Z,1.70
2022-11-27T01:16:11.098Z,1.70
2022-11-27T01:18:38.926Z,1.60
2022-11-27T01:21:06.319Z,1.60
2022-11-27T01:23:33.201Z,1.70
2022-11-27T01:26:01.211Z,1.70
2022-11-27T01:28:28.076Z,1.70
2022-11-27T01:30:54.957Z,1.70
2022-11-27T01:33:22.019Z,1.60
2022-11-27T01:35:56.387Z,1.70
2022-11-27T01:38:23.574Z,1.80
2022-11-27T01:40:56.901Z,1.80
2022-11-27T01:43:37.368Z,1.70
2022-11-27T01:46:04.716Z,1.80
2022-11-27T01:48:31.623Z,1.80
2022-11-27T01:50:58.495Z,1.80
2022-11-27T01:53:25.405Z,1.80
2022-11-27T01:55:55.382Z,1.80
2022-11-27T01:58:23.457Z,1.80
2022-11-27T02:00:50.270Z,1.80
2022-11-27T02:03:17.157Z,1.80
2022-11-27T02:05:44.072Z,1.80
2022-11-27T02:08:12.652Z,1.90
2022-11-27T02:10:56.166Z,1.90
2022-11-27T02:13:22.935Z,1.70
2022-11-27T02:16:08.389Z,1.70
2022-11-27T02:18:37.968Z,1.80
2022-11-27T02:21:10.583Z,1.80
2022-11-27T02:23:56.198Z,1.70
2022-11-27T02:26:36.214Z,1.70
2022-11-27T02:29:04.290Z,1.80
2022-11-27T02:31:31.185Z,1.80
2022-11-27T02:34:02.360Z,1.90
2022-11-27T02:36:31.621Z,1.90
2022-11-27T02:39:12.021Z,1.90
2022-11-27T02:41:41.643Z,1.80
2022-11-27T02:44:10.108Z,1.80
2022-11-27T02:46:38.197Z,1.70
2022-11-27T02:49:08.769Z,1.80
2022-11-27T02:51:39.177Z,1.80
2022-11-27T02:54:08.120Z,1.80
2022-11-27T02:56:35.222Z,1.80
2022-11-27T02:59:03.002Z,1.80
2022-11-27T03:01:32.528Z,1.80
2022-11-27T03:04:00.153Z,1.80
2022-11-27T03:06:29.436Z,1.80
2022-11-27T03:09:07.836Z,1.80
2022-11-27T03:11:35.074Z,1.80
2022-11-27T03:14:06.482Z,1.80
2022-11-27T03:16:43.908Z,1.90
2022-11-27T03:19:17.472Z,1.90
2022-11-27T03:21:50.500Z,1.90
2022-11-27T03:24:17.394Z,1.90
2022-11-27T03:26:44.305Z,1.80
2022-11-27T03:29:13.211Z,1.90
2022-11-27T03:31:40.255Z,1.90
2022-11-27T03:34:07.461Z,1.90
2022-11-27T03:36:34.234Z,1.90
2022-11-27T03:39:01.054Z,1.90
2022-11-27T03:41:50.553Z,1.80
2022-11-27T03:44:32.643Z,1.80
2022-11-27T03:47:17.636Z,1.80
2022-11-27T03:49:52.308Z,1.80
2022-11-27T03:52:36.006Z,1.80
2022-11-27T03:55:21.132Z,1.70
2022-11-27T03:58:00.250Z,1.80
2022-11-27T04:00:30.079Z,1.90
2022-11-27T04:02:57.047Z,1.90
2022-11-27T04:05:23.988Z,1.90
2022-11-27T04:07:50.887Z,1.90
2022-11-27T04:10:17.771Z,1.90
2022-11-27T04:12:44.620Z,1.90
2022-11-27T04:15:11.805Z,1.90
2022-11-27T04:17:38.635Z,1.90
2022-11-27T04:20:07.395Z,1.90
2022-11-27T04:22:34.197Z,1.90
2022-11-27T04:25:00.948Z,1.90
2022-11-27T04:27:27.820Z,2.00
2022-11-27T04:29:54.574Z,1.90
2022-11-27T04:32:21.453Z,2.00
2022-11-27T04:34:48.280Z,1.90
2022-11-27T04:37:15.046Z,2.00
2022-11-27T04:39:41.855Z,1.90
2022-11-27T04:42:08.704Z,2.00
2022-11-27T04:44:35.479Z,1.90
2022-11-27T04:47:02.956Z,1.90
2022-11-27T04:49:29.862Z,1.80
2022-11-27T04:51:56.612Z,1.80
2022-11-27T04:54:23.520Z,1.80
2022-11-27T04:56:50.364Z,1.80
2022-11-27T04:59:17.196Z,1.80
2022-11-27T05:01:43.941Z,1.80
2022-11-27T05:04:10.787Z,1.70
2022-11-27T05:06:37.605Z,1.70
2022-11-27T05:09:04.521Z,1.80
2022-11-27T05:11:31.936Z,1.70
2022-11-27T05:14:17.100Z,1.70
2022-11-27T05:16:48.572Z,1.80
2022-11-27T05:19:17.022Z,1.80
2022-11-27T05:21:44.202Z,1.90
2022-11-27T05:24:11.372Z,1.90
2022-11-27T05:26:38.824Z,1.90
2022-11-27T05:29:06.483Z,1.90
2022-11-27T05:31:33.412Z,1.90
2022-11-27T05:34:00.280Z,1.90
2022-11-27T05:36:27.082Z,1.90
2022-11-27T05:38:53.842Z,1.90
2022-11-27T05:41:20.857Z,1.80
2022-11-27T05:43:47.921Z,1.80
2022-11-27T05:46:15.616Z,1.80
2022-11-27T05:48:42.663Z,1.80
2022-11-27T05:51:09.549Z,1.90
2022-11-27T05:53:36.356Z,1.90
2022-11-27T05:56:04.204Z,1.80
2022-11-27T05:58:31.189Z,1.80
2022-11-27T06:00:58.201Z,1.80
2022-11-27T06:03:25.168Z,1.80
2022-11-27T06:05:52.545Z,1.80
2022-11-27T06:08:19.894Z,1.90
2022-11-27T06:10:47.608Z,1.90
2022-11-27T06:13:14.416Z,1.90
2022-11-27T06:15:41.676Z,1.90
2022-11-27T06:18:08.847Z,2.00
2022-11-27T06:20:39.578Z,2.00
2022-11-27T06:23:09.241Z,1.90
2022-11-27T06:25:35.995Z,1.90
2022-11-27T06:28:02.840Z,1.90
2022-11-27T06:30:29.648Z,2.00
2022-11-27T06:32:56.449Z,2.00
2022-11-27T06:35:24.396Z,1.90
2022-11-27T06:37:51.239Z,2.00
2022-11-27T06:40:18.187Z,2.00
2022-11-27T06:42:45.013Z,1.90
2022-11-27T06:45:11.766Z,1.90
2022-11-27T06:47:38.546Z,1.90
2022-11-27T06:50:05.963Z,1.90
2022-11-27T06:52:37.170Z,1.90
2022-11-27T06:55:07.034Z,1.80
2022-11-27T06:57:33.794Z,1.80
2022-11-27T07:00:00.637Z,1.90
2022-11-27T07:02:27.578Z,2.00
2022-11-27T07:04:54.418Z,1.90
2022-11-27T07:07:21.375Z,1.90
2022-11-27T07:09:48.352Z,1.80
2022-11-27T07:12:15.254Z,1.90
2022-11-27T07:14:42.697Z,1.90
2022-11-27T07:17:09.562Z,1.90
2022-11-27T07:19:36.394Z,1.90
2022-11-27T07:22:03.175Z,1.90
2022-11-27T07:24:30.181Z,1.80
2022-11-27T07:26:56.992Z,1.80
2022-11-27T07:29:23.784Z,1.70
2022-11-27T07:31:51.528Z,1.80
2022-11-27T07:34:21.750Z,1.80
2022-11-27T07:36:48.812Z,1.80
2022-11-27T07:39:22.251Z,1.80
2022-11-27T07:41:59.821Z,1.90
2022-11-27T07:44:26.947Z,1.80
2022-11-27T07:46:53.784Z,1.80
2022-11-27T07:49:20.559Z,1.80
2022-11-27T07:51:47.335Z,1.90
2022-11-27T07:54:14.161Z,1.90
2022-11-27T07:56:40.902Z,2.00
2022-11-27T07:59:07.722Z,2.00
2022-11-27T08:01:36.442Z,2.00
2022-11-27T08:04:03.655Z,1.90
2022-11-27T08:06:30.483Z,2.00
2022-11-27T08:08:57.369Z,1.90
2022-11-27T08:11:25.525Z,1.90
2022-11-27T08:13:56.210Z,1.90
2022-11-27T08:16:23.207Z,1.90
2022-11-27T08:18:50.094Z,1.90
2022-11-27T08:21:16.920Z,2.00
2022-11-27T08:23:43.740Z,1.90
2022-11-27T08:26:10.845Z,1.90
2022-11-27T08:28:38.637Z,1.90
2022-11-27T08:31:06.154Z,1.90
2022-11-27T08:33:33.248Z,1.90
2022-11-27T08:36:00.460Z,1.90
2022-11-27T08:38:27.595Z,1.90
2022-11-27T08:41:04.425Z,1.90
2022-11-27T08:43:31.434Z,1.90
2022-11-27T08:45:58.613Z,2.00
2022-11-27T08:48:25.851Z,2.00
2022-11-27T08:50:52.974Z,2.00
2022-11-27T08:53:19.882Z,2.00
2022-11-27T08:55:47.048Z,2.10
2022-11-27T08:58:14.183Z,2.20
2022-11-27T09:00:41.602Z,2.00
2022-11-27T09:03:10.761Z,2.10
2022-11-27T09:05:41.444Z,2.10
2022-11-27T09:08:08.251Z,2.20
2022-11-27T09:10:36.600Z,2.20
2022-11-27T09:13:03.413Z,2.10
2022-11-27T09:15:30.334Z,2.10
2022-11-27T09:17:57.375Z,2.20
2022-11-27T09:20:24.210Z,2.20
2022-11-27T09:22:51.077Z,2.20
2022-11-27T09:25:18.000Z,2.20
2022-11-27T09:27:44.800Z,2.20
2022-11-27T09:30:11.900Z,2.20
2022-11-27T09:32:38.849Z,2.20
2022-11-27T09:35:05.901Z,2.30
2022-11-27T09:37:32.904Z,2.30
2022-11-27T09:39:59.793Z,2.30
2022-11-27T09:42:38.592Z,2.40
2022-11-27T09:45:08.145Z,2.40
2022-11-27T09:47:42.448Z,2.40
2022-11-27T09:50:14.290Z,2.30
2022-11-27T09:52:47.958Z,2.30
2022-11-27T09:55:20.785Z,2.40
2022-11-27T09:57:55.970Z,2.50
2022-11-27T10:00:22.901Z,2.50
2022-11-27T10:02:49.857Z,2.40
2022-11-27T10:05:19.792Z,2.40
2022-11-27T10:08:04.686Z,2.40
2022-11-27T10:10:36.010Z,2.40
2022-11-27T10:13:22.768Z,2.40
2022-11-27T10:16:12.590Z,2.30
2022-11-27T10:18:46.668Z,2.40
2022-11-27T10:21:17.393Z,2.40
2022-11-27T10:23:53.195Z,2.50
2022-11-27T10:26:22.601Z,2.60
2022-11-27T10:28:57.610Z,2.50
2022-11-27T10:31:36.636Z,2.40
2022-11-27T10:34:07.116Z,2.50
2022-11-27T10:36:42.051Z,2.60
2022-11-27T10:39:14.883Z,2.60
2022-11-27T10:41:50.379Z,2.50
2022-11-27T10:44:33.660Z,2.50
2022-11-27T10:47:02.589Z,2.50
2022-11-27T10:49:29.886Z,2.50
2022-11-27T10:51:56.704Z,2.60
2022-11-27T10:54:26.559Z,2.60
2022-11-27T10:56:53.329Z,2.50
2022-11-27T10:59:23.974Z,2.50
2022-11-27T11:01:53.471Z,2.50
2022-11-27T11:04:41.480Z,2.60
2022-11-27T11:07:28.230Z,2.50
2022-11-27T11:09:55.427Z,2.50
2022-11-27T11:12:23.169Z,2.60
2022-11-27T11:14:54.587Z,2.60
2022-11-27T11:17:26.297Z,2.60
2022-11-27T11:19:53.679Z,2.60
2022-11-27T11:22:20.976Z,2.50
2022-11-27T11:24:49.201Z,2.60
2022-11-27T11:27:23.433Z,2.50
2022-11-27T11:29:53.289Z,2.50
2022-11-27T11:32:20.040Z,2.60
2022-11-27T11:34:49.087Z,2.50
2022-11-27T11:37:21.490Z,2.50
2022-11-27T11:39:53.793Z,2.50
2022-11-27T11:42:21.573Z,2.40
2022-11-27T11:44:52.785Z,2.40
2022-11-27T11:47:20.264Z,2.50
2022-11-27T11:49:47.125Z,2.50
2022-11-27T11:52:38.353Z,2.50
2022-11-27T11:55:34.757Z,2.40
2022-11-27T11:58:20.095Z,2.40
2022-11-27T12:01:18.939Z,2.60
2022-11-27T12:03:47.559Z,2.50
2022-11-27T12:06:28.005Z,2.40
2022-11-27T12:09:15.429Z,2.50
2022-11-27T12:11:48.272Z,2.50
2022-11-27T12:14:15.039Z,2.60
2022-11-27T12:16:50.482Z,2.70
2022-11-27T12:19:20.047Z,2.70
2022-11-27T12:21:53.254Z,2.70
2022-11-27T12:24:20.087Z,2.70
2022-11-27T12:27:12.085Z,2.70
2022-11-27T12:29:53.599Z,2.70
2022-11-27T12:32:35.767Z,2.60
2022-11-27T12:35:07.357Z,2.60
2022-11-27T12:37:53.054Z,2.60
2022-11-27T12:40:32.016Z,2.70
2022-11-27T12:43:17.535Z,2.70
2022-11-27T12:45:47.794Z,2.60
2022-11-27T12:48:20.921Z,2.50
2022-11-27T12:50:50.231Z,2.60
2022-11-27T12:53:21.748Z,2.60
2022-11-27T12:56:16.021Z,2.60
2022-11-27T12:58:48.675Z,2.60
2022-11-27T13:01:22.423Z,2.50
2022-11-27T13:04:10.269Z,2.50
2022-11-27T13:06:42.783Z,2.50
2022-11-27T13:09:13.549Z,2.60
2022-11-27T13:11:40.934Z,2.70
2022-11-27T13:14:12.510Z,2.60
2022-11-27T13:16:41.521Z,2.50
2022-11-27T13:19:16.942Z,2.50
2022-11-27T13:21:45.206Z,2.40
2022-11-27T13:24:13.200Z,2.40
2022-11-27T13:26:49.191Z,2.40
2022-11-27T13:29:27.590Z,2.30
2022-11-27T13:31:59.127Z,2.40
2022-11-27T13:34:27.790Z,2.30
2022-11-27T13:36:57.134Z,2.30
2022-11-27T13:39:25.385Z,2.30
2022-11-27T13:42:02.488Z,2.40
2022-11-27T13:44:29.741Z,2.40
2022-11-27T13:46:59.333Z,2.40
2022-11-27T13:49:31.041Z,2.50
2022-11-27T13:52:05.321Z,2.40
2022-11-27T13:54:32.181Z,2.40
2022-11-27T13:57:09.129Z,2.40
2022-11-27T13:59:39.308Z,2.30
2022-11-27T14:02:07.487Z,2.30
2022-11-27T14:04:35.168Z,2.30
2022-11-27T14:07:07.204Z,2.30
2022-11-27T14:09:36.209Z,2.30
2022-11-27T14:12:13.342Z,2.30
2022-11-27T14:14:41.788Z,2.20
2022-11-27T14:17:23.982Z,2.30
2022-11-27T14:19:59.384Z,2.30
2022-11-27T14:23:09.945Z,2.30
2022-11-27T14:25:33.851Z,2.40
2022-11-27T14:28:07.036Z,2.30
2022-11-27T14:30:35.270Z,2.40
2022-11-27T14:33:04.966Z,2.40
2022-11-27T14:35:31.721Z,2.40
2022-11-27T14:38:16.639Z,2.50
2022-11-27T14:40:43.600Z,2.40
2022-11-27T14:43:14.221Z,2.40
2022-11-27T14:45:45.337Z,2.40
2022-11-27T14:48:23.204Z,2.40
2022-11-27T14:50:50.763Z,2.30
2022-11-27T14:53:19.259Z,2.40
2022-11-27T14:55:48.532Z,2.40
2022-11-27T14:58:19.741Z,2.30
2022-11-27T15:00:55.542Z,2.30
2022-11-27T15:03:22.798Z,2.20
2022-11-27T15:06:03.030Z,2.30
2022-11-27T15:08:32.031Z,2.30
2022-11-27T15:10:59.643Z,2.30
2022-11-27T15:13:30.522Z,2.30
2022-11-27T15:16:03.269Z,2.20
2022-11-27T15:18:31.205Z,2.30
2022-11-27T15:20:58.838Z,2.20
2022-11-27T15:23:25.642Z,2.10
2022-11-27T15:26:08.287Z,2.20
2022-11-27T15:28:40.165Z,2.10
2022-11-27T15:31:25.341Z,2.20
2022-11-27T15:34:00.126Z,2.10
2022-11-27T15:36:27.339Z,2.10
2022-11-27T15:39:04.304Z,2.10
2022-11-27T15:41:31.554Z,2.10
2022-11-27T15:43:58.371Z,2.10
2022-11-27T15:46:26.496Z,2.20
2022-11-27T15:48:53.689Z,2.20
2022-11-27T15:51:20.514Z,2.30
2022-11-27T15:53:48.605Z,2.20
2022-11-27T15:56:16.296Z,2.10
2022-11-27T15:58:43.360Z,2.10
2022-11-27T16:01:10.686Z,2.10
2022-11-27T16:03:39.924Z,2.10
2022-11-27T16:06:08.133Z,2.10
2022-11-27T16:08:35.177Z,2.10
2022-11-27T16:11:03.200Z,2.10
2022-11-27T16:13:30.076Z,2.10
2022-11-27T16:16:01.011Z,2.20
2022-11-27T16:18:27.881Z,2.20
2022-11-27T16:20:54.773Z,2.20
2022-11-27T16:23:21.512Z,2.20
2022-11-27T16:25:48.288Z,2.20
2022-11-27T16:28:15.031Z,2.30
2022-11-27T16:30:41.867Z,2.30
2022-11-27T16:33:08.733Z,2.40
2022-11-27T16:35:36.405Z,2.40
2022-11-27T16:38:03.307Z,2.40
2022-11-27T16:40:30.257Z,2.40
2022-11-27T16:42:57.094Z,2.30
2022-11-27T16:45:24.004Z,2.30
2022-11-27T16:47:50.853Z,2.30
2022-11-27T16:50:17.755Z,2.30
2022-11-27T16:52:44.789Z,2.30
2022-11-27T16:55:11.681Z,2.30
2022-11-27T16:57:38.502Z,2.30
2022-11-27T17:00:05.710Z,2.30
2022-11-27T17:02:32.506Z,2.30
2022-11-27T17:04:59.360Z,2.30
2022-11-27T17:07:26.238Z,2.40
2022-11-27T17:09:53.106Z,2.30
2022-11-27T17:12:19.928Z,2.30
2022-11-27T17:14:47.292Z,2.30
2022-11-27T17:17:14.053Z,2.30
2022-11-27T17:19:41.304Z,2.20
2022-11-27T17:22:08.253Z,2.30
2022-11-27T17:24:36.038Z,2.30
2022-11-27T17:27:02.906Z,2.30
2022-11-27T17:29:33.523Z,2.40
2022-11-27T17:32:00.737Z,2.40
2022-11-27T17:34:27.576Z,2.40
2022-11-27T17:36:57.515Z,2.40
2022-11-27T17:39:24.531Z,2.50
2022-11-27T17:41:51.407Z,2.50
2022-11-27T17:44:18.216Z,2.50
2022-11-27T17:46:49.915Z,2.50
2022-11-27T17:49:17.115Z,2.40
2022-11-27T17:51:44.042Z,2.40
2022-11-27T17:54:11.372Z,2.40
2022-11-27T17:56:38.163Z,2.30
2022-11-27T17:59:05.069Z,2.40
2022-11-27T18:01:34.705Z,2.30
2022-11-27T18:04:03.633Z,2.30
2022-11-27T18:06:30.954Z,2.30
2022-11-27T18:08:58.266Z,2.30
2022-11-27T18:11:26.660Z,2.30
2022-11-27T18:13:54.076Z,2.30
2022-11-27T18:16:23.993Z,2.30
2022-11-27T18:18:51.200Z,2.40
2022-11-27T18:21:19.265Z,2.30
2022-11-27T18:24:21.191Z,2.30
2022-11-27T18:27:00.367Z,2.40
2022-11-27T18:29:21.999Z,2.30
2022-11-27T18:31:50.015Z,2.30
2022-11-27T18:34:17.046Z,2.20
2022-11-27T18:36:43.860Z,2.20
2022-11-27T18:39:10.705Z,2.20
2022-11-27T18:41:37.673Z,2.10
2022-11-27T18:44:04.738Z,2.00
2022-11-27T18:46:31.713Z,2.00
2022-11-27T18:48:59.193Z,1.90
2022-11-27T18:51:26.720Z,1.90
2022-11-27T18:53:54.686Z,1.90
2022-11-27T18:56:25.976Z,1.80
2022-11-27T18:58:54.085Z,1.80
2022-11-27T19:01:22.612Z,1.80
2022-11-27T19:03:49.748Z,1.80
2022-11-27T19:06:18.210Z,1.80
2022-11-27T19:08:45.286Z,1.80
2022-11-27T19:11:13.333Z,1.70
2022-11-27T19:13:40.724Z,1.70
2022-11-27T19:16:08.964Z,1.70
2022-11-27T19:18:36.996Z,1.70
2022-11-27T19:21:10.398Z,1.70
2022-11-27T19:23:39.369Z,1.70
2022-11-27T19:26:10.327Z,1.70
2022-11-27T19:28:37.116Z,1.60
2022-11-27T19:31:07.829Z,1.70
2022-11-27T19:33:36.650Z,1.60
2022-11-27T19:36:08.687Z,1.60
2022-11-27T19:38:35.707Z,1.60
2022-11-27T19:41:03.291Z,1.60
2022-11-27T19:43:30.163Z,1.60
2022-11-27T19:45:57.008Z,1.60
2022-11-27T19:48:24.051Z,1.60
2022-11-27T19:50:51.846Z,1.60
2022-11-27T19:53:19.262Z,1.60
2022-11-27T19:55:52.472Z,1.60
2022-11-27T19:58:19.259Z,1.50
2022-11-27T20:00:46.106Z,1.50
2022-11-27T20:03:12.930Z,1.50
2022-11-27T20:05:40.367Z,1.50
2022-11-27T20:08:07.229Z,1.60
2022-11-27T20:10:34.014Z,1.50
2022-11-27T20:13:01.737Z,1.60
2022-11-27T20:15:29.029Z,1.50
2022-11-27T20:17:55.853Z,1.50
2022-11-27T20:20:22.809Z,1.50
2022-11-27T20:22:50.398Z,1.50
2022-11-27T20:25:19.887Z,1.60
2022-11-27T20:27:47.396Z,1.50
2022-11-27T20:30:14.283Z,1.60
2022-11-27T20:32:41.117Z,1.60
2022-11-27T20:35:08.024Z,1.60
2022-11-27T20:37:35.066Z,1.50
2022-11-27T20:40:01.909Z,1.60
2022-11-27T20:42:28.735Z,1.60
2022-11-27T20:44:55.811Z,1.60
2022-11-27T20:47:22.572Z,1.60
2022-11-27T20:49:49.678Z,1.60
2022-11-27T20:52:16.585Z,1.60
2022-11-27T20:54:43.409Z,1.60
2022-11-27T20:57:14.260Z,1.60
2022-11-27T20:59:41.617Z,1.60
2022-11-27T21:02:12.241Z,1.60
2022-11-27T21:04:39.103Z,1.60
2022-11-27T21:07:05.935Z,1.60
2022-11-27T21:09:32.812Z,1.60
2022-11-27T21:11:59.906Z,1.60
2022-11-27T21:14:26.861Z,1.60
2022-11-27T21:16:54.516Z,1.60
2022-11-27T21:19:22.669Z,1.60
2022-11-27T21:21:50.010Z,1.60
2022-11-27T21:24:16.895Z,1.60
2022-11-27T21:26:43.938Z,1.60
2022-11-27T21:29:12.418Z,1.60
2022-11-27T21:31:43.853Z,1.60
2022-11-27T21:34:13.212Z,1.60
2022-11-27T21:36:40.028Z,1.50
2022-11-27T21:39:08.311Z,1.50
2022-11-27T21:41:35.653Z,1.50
2022-11-27T21:44:03.397Z,1.50
2022-11-27T21:46:30.611Z,1.50
2022-11-27T21:48:58.669Z,1.50
2022-11-27T21:51:26.700Z,1.50
2022-11-27T21:53:55.476Z,1.50
2022-11-27T21:56:23.606Z,1.60
2022-11-27T21:58:50.783Z,1.60
2022-11-27T22:01:22.082Z,1.50
2022-11-27T22:03:51.516Z,1.60
2022-11-27T22:06:19.191Z,1.60
2022-11-27T22:08:47.360Z,1.60
2022-11-27T22:11:15.412Z,1.50
2022-11-27T22:13:42.612Z,1.50
2022-11-27T22:16:10.490Z,1.40
2022-11-27T22:18:37.432Z,1.40
2022-11-27T22:21:05.088Z,1.40
2022-11-27T22:23:32.135Z,1.50
2022-11-27T22:26:02.477Z,1.50
2022-11-27T22:28:29.730Z,1.50
2022-11-27T22:30:56.733Z,1.40
2022-11-27T22:33:23.974Z,1.50
2022-11-27T22:35:51.078Z,1.50
2022-11-27T22:38:17.911Z,1.50
2022-11-27T22:40:44.694Z,1.30
2022-11-27T22:43:11.473Z,1.50
2022-11-27T22:45:39.219Z,1.50
2022-11-27T22:48:06.222Z,1.50
2022-11-27T22:50:33.003Z,1.40
2022-11-27T22:52:59.788Z,1.40
2022-11-27T22:55:27.641Z,1.40
2022-11-27T22:57:54.509Z,1.40
2022-11-27T23:00:21.699Z,1.40
2022-11-27T23:02:48.504Z,1.40
2022-11-27T23:05:15.354Z,1.40
2022-11-27T23:07:42.212Z,1.50
2022-11-27T23:10:09.551Z,1.50
2022-11-27T23:12:36.333Z,1.50
2022-11-27T23:15:03.296Z,1.50
2022-11-27T23:17:30.139Z,1.40
2022-11-27T23:19:56.872Z,1.40
2022-11-27T23:22:23.683Z,1.40
2022-11-27T23:24:50.429Z,1.40
2022-11-27T23:27:17.263Z,1.40
2022-11-27T23:29:44.085Z,1.40
2022-11-27T23:32:10.971Z,1.40
2022-11-27T23:34:37.779Z,1.40
2022-11-27T23:37:04.678Z,1.40
2022-11-27T23:39:31.505Z,1.40
2022-11-27T23:41:58.321Z,1.40
2022-11-27T23:44:25.129Z,1.40
2022-11-27T23:46:51.887Z,1.50
2022-11-27T23:51:17.316Z,1.50
2022-11-27T23:53:44.508Z,1.50
2022-11-27T23:56:12.953Z,1.50
2022-11-27T23:58:43.774Z,1.50
